world map with RVN marked

RVN - Airport

This information may not be accurate or current and is not valid for navigation or flight planning. No warranty of fitness for any purpose is made or implied.

flag of Finland

Donate via PayPal

Additional information is available on the NEW Great Circle Mapper

Location
City:  Rovaniemi, Lappi (Lappland;Lapland), Finland
ICAO / IATA:EFRO / RVN

Details
Type:Airport (Aerodrome, Airfield)
Latitude:66°33'42"N (66.561667)
Longitude:25°49'51"E (25.830833)
Elevation:645 ft (197 m)
Runways:1
Longest:9849 × 197 ft (3002 × 60 m)

Time
Timezone:UTC+2 (DST+5)
Local Time:

Weather
METAR:EFRO  200650Z 34012KT CAVOK 01/M01 Q1024
TAF:EFRO  200530Z 2006/2106 32010KT 9999 FEW035

Related Locations
Nearby:
Farthest:NZTB: 11352 mi / 18269 km
Terra Nova Bay [Mario Zucchelli Station], AQ

Find:

   beyond  
but within

Other Information
Maps:
Sources:

  


 


Great Circle Mapper   Great Circle Mapper
Great Circle Mapper FAQ   Great Circle Mapper FAQ
  Karl's Home Page
KLSē   KLSē Home
   GC on Facebook
Airlines of the World   Airlines of the World
Donate via PayPal


Copyright © 2004-2018, Karl L. Swartz. All rights reserved.
All trademarks mentioned herein belong to their respective owners.

Please see credits for attribution and copyright information.

Karl Swartz <karl@kls2.com>
  Powered by FreeBSD
Valid HTML 4.01!
Labeled with ICRA
hCard Microformat
Geo Microformat